Time;durP1;ratioP1;P1;durP2;ratioP2;P2;SDS_P1;SDS_P2;PMS_P1;PMS_P2;Temp;Humidity;BMP_temperature;BMP_pressure;BME280_temperature;BME280_humidity;BME280_pressure;Samples;Min_cycle;Max_cycle;Signal;HPM_P1;HPM_P2
2022/06/14 00:01:03;;;;;;;8.60;3.13;;;;;;;;;;5116603;28;20988;-69
2022/06/14 00:03:31;;;;;;;7.10;3.30;;;;;;;;;;5116872;28;20533;-69
2022/06/14 00:06:00;;;;;;;7.27;5.37;;;;;;;;;;5116769;28;20452;-69
2022/06/14 00:08:30;;;;;;;6.67;2.90;;;;;;;;;;5116552;28;20557;-69
2022/06/14 00:10:59;;;;;;;9.40;3.80;;;;;;;;;;5116912;28;20424;-70
2022/06/14 00:13:27;;;;;;;6.97;4.47;;;;;;;;;;5116556;28;20521;-70
2022/06/14 00:15:54;;;;;;;4.87;2.73;;;;;;;;;;5116593;28;20537;-69
2022/06/14 00:18:21;;;;;;;10.00;3.13;;;;;;;;;;5116824;28;20448;-70
2022/06/14 00:20:49;;;;;;;8.30;3.20;;;;;;;;;;5116537;28;20545;-69
2022/06/14 00:23:17;;;;;;;8.20;4.10;;;;;;;;;;5116090;28;20438;-69
2022/06/14 00:25:46;;;;;;;13.47;3.37;;;;;;;;;;5116346;28;20533;-69
2022/06/14 00:28:15;;;;;;;9.50;3.27;;;;;;;;;;5115923;28;20525;-69
2022/06/14 00:30:43;;;;;;;4.10;3.37;;;;;;;;;;5115975;28;20457;-69
2022/06/14 00:33:10;;;;;;;15.70;4.17;;;;;;;;;;5116198;28;20451;-69
2022/06/14 00:35:38;;;;;;;9.00;4.67;;;;;;;;;;5115947;28;20962;-69
2022/06/14 00:38:08;;;;;;;7.10;3.20;;;;;;;;;;5116037;28;20457;-70
2022/06/14 00:40:36;;;;;;;7.90;3.40;;;;;;;;;;5117029;28;20797;-69
2022/06/14 00:43:05;;;;;;;6.33;3.00;;;;;;;;;;5115816;28;21008;-69
2022/06/14 00:45:51;;;;;;;9.87;3.70;;;;;;;;;;5115732;28;20534;-69
2022/06/14 00:48:20;;;;;;;6.40;3.67;;;;;;;;;;5115526;28;20439;-69
2022/06/14 00:50:50;;;;;;;4.60;3.60;;;;;;;;;;5116419;28;20479;-69
2022/06/14 00:53:19;;;;;;;4.83;3.80;;;;;;;;;;5114316;28;20924;-70
2022/06/14 00:55:48;;;;;;;4.33;3.80;;;;;;;;;;5115801;28;20441;-69
2022/06/14 00:58:18;;;;;;;9.87;3.60;;;;;;;;;;5115855;28;20445;-69
2022/06/14 01:00:48;;;;;;;5.43;3.73;;;;;;;;;;5115777;28;20441;-69
2022/06/14 01:03:17;;;;;;;6.33;3.50;;;;;;;;;;5115630;28;20546;-69
2022/06/14 01:08:33;;;;;;;6.77;4.13;;;;;;;;;;5115410;28;20397;-69
2022/06/14 01:11:00;;;;;;;10.57;4.80;;;;;;;;;;5115781;28;20542;-69
2022/06/14 01:13:29;;;;;;;11.60;4.30;;;;;;;;;;5115867;28;20490;-69
2022/06/14 01:15:56;;;;;;;6.03;4.47;;;;;;;;;;5115051;28;20525;-69
2022/06/14 01:18:24;;;;;;;5.93;4.10;;;;;;;;;;5115454;28;20541;-69
2022/06/14 01:20:51;;;;;;;7.60;4.70;;;;;;;;;;5115086;28;20529;-69
2022/06/14 01:23:20;;;;;;;9.43;4.60;;;;;;;;;;5115192;28;20439;-69
2022/06/14 01:25:48;;;;;;;7.60;5.60;;;;;;;;;;5114941;28;20439;-69
2022/06/14 01:28:17;;;;;;;12.93;5.70;;;;;;;;;;5114799;28;20943;-69
2022/06/14 01:30:45;;;;;;;6.87;4.60;;;;;;;;;;5115378;28;20585;-69
2022/06/14 01:33:14;;;;;;;6.90;4.73;;;;;;;;;;5115002;28;20927;-69
2022/06/14 01:35:44;;;;;;;11.80;5.47;;;;;;;;;;5115259;28;20435;-69
2022/06/14 01:38:13;;;;;;;10.80;5.10;;;;;;;;;;5115031;28;20534;-69
2022/06/14 01:40:50;;;;;;;11.93;5.23;;;;;;;;;;5114624;28;20962;-69
2022/06/14 01:43:30;;;;;;;5.80;5.00;;;;;;;;;;5114909;28;20431;-69
2022/06/14 01:46:01;;;;;;;11.93;6.53;;;;;;;;;;5114904;28;20423;-69
2022/06/14 01:48:31;;;;;;;12.27;6.67;;;;;;;;;;5115374;28;20461;-69
2022/06/14 01:53:50;;;;;;;12.97;5.00;;;;;;;;;;5114474;28;20401;-69
2022/06/14 01:56:20;;;;;;;6.77;5.23;;;;;;;;;;5114731;28;20423;-69
2022/06/14 01:58:55;;;;;;;13.13;5.67;;;;;;;;;;5114677;28;20506;-69
2022/06/14 02:01:26;;;;;;;9.10;5.43;;;;;;;;;;5114615;28;20434;-69
2022/06/14 02:06:45;;;;;;;8.33;5.10;;;;;;;;;;5114377;28;20436;-69
2022/06/14 02:09:15;;;;;;;7.63;5.20;;;;;;;;;;5114408;28;21041;-69
2022/06/14 02:11:44;;;;;;;13.40;5.87;;;;;;;;;;5114185;28;20514;-69
2022/06/14 02:14:17;;;;;;;10.17;6.20;;;;;;;;;;5114427;28;20463;-69
2022/06/14 02:16:47;;;;;;;7.77;5.13;;;;;;;;;;5114393;28;20477;-69
2022/06/14 02:19:17;;;;;;;11.17;5.20;;;;;;;;;;5113932;28;20534;-69
2022/06/14 02:21:46;;;;;;;8.07;5.40;;;;;;;;;;5113989;28;21018;-69
2022/06/14 02:24:16;;;;;;;11.10;5.40;;;;;;;;;;5114212;28;20801;-69
2022/06/14 02:26:48;;;;;;;14.00;5.67;;;;;;;;;;5114649;28;20431;-69
2022/06/14 02:29:18;;;;;;;9.57;5.30;;;;;;;;;;5113742;28;20462;-70
2022/06/14 02:31:47;;;;;;;8.50;5.03;;;;;;;;;;5113845;28;20529;-69
2022/06/14 02:34:17;;;;;;;7.57;4.90;;;;;;;;;;5113648;28;20446;-69
2022/06/14 02:36:47;;;;;;;5.65;5.15;;;;;;;;;;5113835;28;20431;-69
2022/06/14 02:39:17;;;;;;;12.10;5.10;;;;;;;;;;5114008;28;20181;-69
2022/06/14 02:41:50;;;;;;;8.80;6.50;;;;;;;;;;5113999;28;20527;-69
2022/06/14 02:44:19;;;;;;;11.33;5.77;;;;;;;;;;5114385;28;20932;-69
2022/06/14 02:46:48;;;;;;;8.80;5.17;;;;;;;;;;5113975;28;20858;-69
2022/06/14 02:49:21;;;;;;;8.73;5.60;;;;;;;;;;5113559;28;20481;-69
2022/06/14 02:51:52;;;;;;;9.47;5.30;;;;;;;;;;5114066;28;20772;-69
2022/06/14 02:54:21;;;;;;;13.33;5.73;;;;;;;;;;5114194;28;20427;-69
2022/06/14 02:56:51;;;;;;;7.23;4.70;;;;;;;;;;5113871;28;20526;-69
2022/06/14 02:59:22;;;;;;;10.37;5.47;;;;;;;;;;5113558;28;20957;-69
2022/06/14 03:01:53;;;;;;;7.13;5.87;;;;;;;;;;5113567;28;20522;-69
2022/06/14 03:04:23;;;;;;;8.90;6.07;;;;;;;;;;5113561;28;20999;-69
2022/06/14 03:06:57;;;;;;;14.10;5.70;;;;;;;;;;5114286;28;20429;-69
2022/06/14 03:09:25;;;;;;;10.20;5.70;;;;;;;;;;5113758;28;20561;-69
2022/06/14 03:11:59;;;;;;;9.80;5.83;;;;;;;;;;5113727;28;20478;-70
2022/06/14 03:14:31;;;;;;;10.40;6.50;;;;;;;;;;5113389;28;20454;-69
2022/06/14 03:17:07;;;;;;;15.83;6.53;;;;;;;;;;5115753;28;20212;-69
2022/06/14 03:19:39;;;;;;;11.47;5.57;;;;;;;;;;5117369;28;20436;-69
2022/06/14 03:22:11;;;;;;;10.73;6.20;;;;;;;;;;5117414;28;20534;-70
2022/06/14 03:24:44;;;;;;;12.57;6.17;;;;;;;;;;5117765;28;20916;-69
2022/06/14 03:27:16;;;;;;;12.97;5.97;;;;;;;;;;5117283;28;20431;-69
2022/06/14 03:29:45;;;;;;;15.60;6.10;;;;;;;;;;5117676;28;20556;-69
2022/06/14 03:32:16;;;;;;;12.50;6.23;;;;;;;;;;5117466;28;20529;-69
2022/06/14 03:34:46;;;;;;;8.57;5.90;;;;;;;;;;5117258;28;20430;-69
2022/06/14 03:37:13;;;;;;;11.07;6.57;;;;;;;;;;5117032;28;20849;-69
2022/06/14 03:39:42;;;;;;;15.00;7.17;;;;;;;;;;5116437;28;20974;-68
2022/06/14 03:42:13;;;;;;;15.83;6.30;;;;;;;;;;5117297;28;20479;-69
2022/06/14 03:44:42;;;;;;;15.55;6.90;;;;;;;;;;5117154;28;20454;-69
2022/06/14 03:47:14;;;;;;;10.93;6.63;;;;;;;;;;5116900;28;20287;-71
2022/06/14 03:49:43;;;;;;;8.50;6.40;;;;;;;;;;5116963;28;20522;-74
2022/06/14 03:52:17;;;;;;;7.60;6.53;;;;;;;;;;5117655;28;20442;-74
2022/06/14 03:54:51;;;;;;;18.93;7.10;;;;;;;;;;5116722;28;20275;-74
2022/06/14 03:57:37;;;;;;;14.25;7.18;;;;;;;;;;5116787;28;20429;-75
2022/06/14 04:00:12;;;;;;;9.25;6.60;;;;;;;;;;5116987;28;20272;-74
2022/06/14 04:02:56;;;;;;;9.43;6.23;;;;;;;;;;5116795;27;20267;-74
2022/06/14 04:05:27;;;;;;;13.50;8.17;;;;;;;;;;5137349;27;20422;-76
2022/06/14 04:07:56;;;;;;;9.70;6.30;;;;;;;;;;5137318;27;20845;-75
2022/06/14 04:10:29;;;;;;;9.75;6.40;;;;;;;;;;5137055;27;20560;-74
2022/06/14 04:13:01;;;;;;;9.10;6.10;;;;;;;;;;5136896;27;20220;-75
2022/06/14 04:15:35;;;;;;;11.13;6.87;;;;;;;;;;5136906;27;20458;-74
2022/06/14 04:18:34;;;;;;;8.60;7.17;;;;;;;;;;5137052;27;20481;-75
2022/06/14 04:21:00;;;;;;;9.17;6.30;;;;;;;;;;5136798;27;20930;-74
2022/06/14 04:23:32;;;;;;;16.30;6.87;;;;;;;;;;5137396;27;20434;-75
2022/06/14 04:26:02;;;;;;;13.93;6.23;;;;;;;;;;5137192;27;20457;-74
2022/06/14 04:28:33;;;;;;;11.57;5.70;;;;;;;;;;5136608;27;20459;-73
2022/06/14 04:31:06;;;;;;;10.70;6.50;;;;;;;;;;5137198;27;20473;-74
2022/06/14 04:33:37;;;;;;;14.30;5.73;;;;;;;;;;5126492;27;20441;-75
2022/06/14 04:36:07;;;;;;;16.67;6.57;;;;;;;;;;5116075;28;20437;-75
2022/06/14 04:38:36;;;;;;;10.87;5.63;;;;;;;;;;5116206;28;20470;-73
2022/06/14 04:41:05;;;;;;;9.73;6.33;;;;;;;;;;5115989;28;20478;-74
2022/06/14 04:43:36;;;;;;;12.83;5.80;;;;;;;;;;5116008;28;20487;-74
2022/06/14 04:46:08;;;;;;;10.77;5.43;;;;;;;;;;5115873;28;20505;-73
2022/06/14 04:48:37;;;;;;;14.70;6.10;;;;;;;;;;5116243;28;20537;-74
2022/06/14 04:51:08;;;;;;;14.93;6.40;;;;;;;;;;5115961;28;20486;-75
2022/06/14 04:53:36;;;;;;;7.10;6.10;;;;;;;;;;5115654;28;20938;-74
2022/06/14 04:56:07;;;;;;;13.07;5.53;;;;;;;;;;5115433;28;20445;-74
2022/06/14 04:58:38;;;;;;;6.20;5.00;;;;;;;;;;5115368;28;20479;-74
2022/06/14 05:01:09;;;;;;;12.70;5.43;;;;;;;;;;5115881;28;20878;-75
2022/06/14 05:03:40;;;;;;;11.67;5.10;;;;;;;;;;5115889;28;20514;-74
2022/06/14 05:06:11;;;;;;;10.20;5.80;;;;;;;;;;5115380;28;20974;-75
2022/06/14 05:08:40;;;;;;;10.33;5.10;;;;;;;;;;5115634;28;20440;-74
2022/06/14 05:11:09;;;;;;;9.37;5.20;;;;;;;;;;5115872;28;20486;-75
2022/06/14 05:13:41;;;;;;;11.67;4.77;;;;;;;;;;5115877;28;20482;-76
2022/06/14 05:16:12;;;;;;;7.47;5.37;;;;;;;;;;5115565;28;20426;-71
2022/06/14 05:18:42;;;;;;;10.90;6.27;;;;;;;;;;5115664;28;20489;-69
2022/06/14 05:21:11;;;;;;;9.40;5.43;;;;;;;;;;5114989;28;20435;-70
2022/06/14 05:23:42;;;;;;;10.73;5.50;;;;;;;;;;5115470;28;20435;-70
2022/06/14 05:26:15;;;;;;;15.63;6.90;;;;;;;;;;5115241;28;20442;-70
2022/06/14 05:28:47;;;;;;;5.83;4.40;;;;;;;;;;5115189;28;20425;-70
2022/06/14 05:31:19;;;;;;;12.90;4.73;;;;;;;;;;5115266;28;21019;-69
2022/06/14 05:33:51;;;;;;;7.13;5.10;;;;;;;;;;5114941;28;20916;-70
2022/06/14 05:36:20;;;;;;;9.73;5.70;;;;;;;;;;5115238;28;20435;-69
2022/06/14 05:38:52;;;;;;;16.33;6.33;;;;;;;;;;5114314;28;20448;-70
2022/06/14 05:41:20;;;;;;;11.63;5.10;;;;;;;;;;5115179;28;20518;-69
2022/06/14 05:43:49;;;;;;;11.10;4.93;;;;;;;;;;5114890;28;20869;-69
2022/06/14 05:46:21;;;;;;;7.80;4.70;;;;;;;;;;5114383;28;20476;-70
2022/06/14 05:48:51;;;;;;;10.47;5.50;;;;;;;;;;5115175;28;20493;-70
2022/06/14 05:51:19;;;;;;;7.10;5.00;;;;;;;;;;5114053;28;20491;-69
2022/06/14 05:53:49;;;;;;;16.10;5.83;;;;;;;;;;5114786;28;20527;-70
2022/06/14 05:56:20;;;;;;;16.20;4.23;;;;;;;;;;5114946;28;20537;-69
2022/06/14 05:58:51;;;;;;;11.53;4.20;;;;;;;;;;5114891;28;20425;-70
2022/06/14 06:01:22;;;;;;;12.10;3.90;;;;;;;;;;5114661;28;20519;-70
2022/06/14 06:03:51;;;;;;;13.23;4.73;;;;;;;;;;5114199;28;20531;-69
2022/06/14 06:06:20;;;;;;;6.60;4.83;;;;;;;;;;5114484;28;20540;-69
2022/06/14 06:08:49;;;;;;;11.40;4.77;;;;;;;;;;5114317;28;20883;-70
2022/06/14 06:11:19;;;;;;;6.53;3.70;;;;;;;;;;5114523;28;20474;-70
2022/06/14 06:13:49;;;;;;;16.53;4.50;;;;;;;;;;5114627;28;20789;-69
2022/06/14 06:16:18;;;;;;;14.43;4.83;;;;;;;;;;5114788;28;20551;-69
2022/06/14 06:18:51;;;;;;;13.07;4.30;;;;;;;;;;5113929;28;20535;-70
2022/06/14 06:21:21;;;;;;;13.13;5.50;;;;;;;;;;5114103;28;20441;-69
2022/06/14 06:23:52;;;;;;;15.23;5.57;;;;;;;;;;5113898;28;20442;-71
2022/06/14 06:26:21;;;;;;;6.03;4.03;;;;;;;;;;5114146;28;20445;-71
2022/06/14 06:28:50;;;;;;;20.23;4.40;;;;;;;;;;5114071;28;20526;-69
2022/06/14 06:31:20;;;;;;;10.80;4.30;;;;;;;;;;5114032;28;20907;-69
2022/06/14 06:33:50;;;;;;;10.77;4.17;;;;;;;;;;5114428;28;20458;-69
2022/06/14 06:36:27;;;;;;;7.63;3.90;;;;;;;;;;5113803;28;20446;-70
2022/06/14 06:39:00;;;;;;;6.10;3.70;;;;;;;;;;5113779;28;20465;-70
2022/06/14 06:44:17;;;;;;;6.10;3.80;;;;;;;;;;5113889;28;20404;-69
2022/06/14 06:46:46;;;;;;;8.00;3.30;;;;;;;;;;5114259;28;20434;-70
2022/06/14 06:49:17;;;;;;;9.60;3.50;;;;;;;;;;5113736;28;20457;-69
2022/06/14 06:51:45;;;;;;;8.77;3.70;;;;;;;;;;5117899;28;20994;-70
2022/06/14 06:54:14;;;;;;;10.00;4.33;;;;;;;;;;5118113;28;20462;-70
2022/06/14 06:56:45;;;;;;;9.83;3.60;;;;;;;;;;5118127;28;20526;-70
2022/06/14 06:59:14;;;;;;;5.90;2.90;;;;;;;;;;5118121;28;20467;-69
2022/06/14 07:01:42;;;;;;;8.07;3.70;;;;;;;;;;5118417;28;20531;-69
2022/06/14 07:04:14;;;;;;;8.50;3.50;;;;;;;;;;5117949;28;20530;-69
2022/06/14 07:06:44;;;;;;;6.77;3.53;;;;;;;;;;5118079;28;20434;-69
2022/06/14 07:09:15;;;;;;;7.23;3.10;;;;;;;;;;5117539;28;20526;-70
2022/06/14 07:11:44;;;;;;;10.50;3.00;;;;;;;;;;5118257;28;20470;-70
2022/06/14 07:14:14;;;;;;;7.53;2.83;;;;;;;;;;5117784;28;20453;-70
2022/06/14 07:16:44;;;;;;;5.43;2.37;;;;;;;;;;5117745;28;20530;-69
2022/06/14 07:19:19;;;;;;;4.07;2.60;;;;;;;;;;5117947;28;20450;-70
2022/06/14 07:21:52;;;;;;;5.50;2.73;;;;;;;;;;5118175;28;20887;-70
2022/06/14 07:24:21;;;;;;;6.77;2.67;;;;;;;;;;5117333;28;20423;-71
2022/06/14 07:26:51;;;;;;;8.50;3.10;;;;;;;;;;5117559;28;20463;-70
2022/06/14 07:29:20;;;;;;;10.30;3.70;;;;;;;;;;5117455;28;20436;-71
2022/06/14 07:31:50;;;;;;;5.30;3.20;;;;;;;;;;5117385;28;20522;-71
2022/06/14 07:34:18;;;;;;;6.77;4.00;;;;;;;;;;5117370;28;20527;-71
2022/06/14 07:36:56;;;;;;;7.37;3.30;;;;;;;;;;5117083;28;20484;-70
2022/06/14 07:39:26;;;;;;;8.33;2.20;;;;;;;;;;5117036;28;20422;-70
2022/06/14 07:41:59;;;;;;;9.23;2.77;;;;;;;;;;5117254;28;20452;-70
2022/06/14 07:44:29;;;;;;;5.90;2.37;;;;;;;;;;5117361;28;20433;-71
2022/06/14 07:47:01;;;;;;;6.47;2.67;;;;;;;;;;5117133;28;20522;-71
2022/06/14 07:49:32;;;;;;;9.50;2.80;;;;;;;;;;5117118;28;20467;-70
2022/06/14 07:52:03;;;;;;;8.30;2.47;;;;;;;;;;5117074;28;20476;-70
2022/06/14 07:54:35;;;;;;;5.30;2.33;;;;;;;;;;5117188;28;20848;-70
2022/06/14 07:57:07;;;;;;;7.40;2.37;;;;;;;;;;5117084;28;20432;-71
2022/06/14 07:59:36;;;;;;;6.20;1.90;;;;;;;;;;5116581;28;20427;-71
2022/06/14 08:02:05;;;;;;;4.80;2.33;;;;;;;;;;5116039;28;20532;-70
2022/06/14 08:04:36;;;;;;;5.57;2.37;;;;;;;;;;5116668;28;20493;-70
2022/06/14 08:07:07;;;;;;;6.37;2.40;;;;;;;;;;5116598;28;20512;-70
2022/06/14 08:09:37;;;;;;;8.30;4.70;;;;;;;;;;5116468;28;20467;-70
2022/06/14 08:12:07;;;;;;;8.90;2.33;;;;;;;;;;5116587;28;20474;-70
2022/06/14 08:14:37;;;;;;;8.07;2.70;;;;;;;;;;5116981;28;20789;-70
2022/06/14 08:17:05;;;;;;;5.10;2.50;;;;;;;;;;5116155;28;20439;-70
2022/06/14 08:19:33;;;;;;;4.80;2.07;;;;;;;;;;5116408;28;20453;-70
2022/06/14 08:22:03;;;;;;;5.03;2.70;;;;;;;;;;5116094;28;20446;-70
2022/06/14 08:24:35;;;;;;;8.60;2.87;;;;;;;;;;5116392;28;20443;-70
2022/06/14 08:27:04;;;;;;;10.47;2.87;;;;;;;;;;5116150;28;20946;-70
2022/06/14 08:29:33;;;;;;;5.87;2.87;;;;;;;;;;5115916;28;20439;-70
2022/06/14 08:32:03;;;;;;;4.40;2.03;;;;;;;;;;5116282;28;20483;-70
2022/06/14 08:34:34;;;;;;;8.43;2.40;;;;;;;;;;5116127;28;20513;-70
2022/06/14 08:37:02;;;;;;;4.90;2.00;;;;;;;;;;5115868;28;20444;-70
2022/06/14 08:39:32;;;;;;;4.90;2.63;;;;;;;;;;5115713;28;21035;-70
2022/06/14 08:42:03;;;;;;;7.60;2.63;;;;;;;;;;5115830;28;20440;-70
2022/06/14 08:44:34;;;;;;;6.90;2.70;;;;;;;;;;5116305;28;20834;-69
2022/06/14 08:47:10;;;;;;;7.17;2.33;;;;;;;;;;5116450;28;20912;-69
2022/06/14 08:49:44;;;;;;;10.57;1.93;;;;;;;;;;5115643;28;21010;-70
2022/06/14 08:52:36;;;;;;;5.70;2.37;;;;;;;;;;5115719;28;20561;-69
2022/06/14 08:55:10;;;;;;;4.40;2.03;;;;;;;;;;5115911;28;20431;-70
2022/06/14 08:57:52;;;;;;;5.37;2.17;;;;;;;;;;5116501;28;20429;-70
2022/06/14 09:00:33;;;;;;;4.57;2.60;;;;;;;;;;5115486;28;20423;-70
2022/06/14 09:03:23;;;;;;;8.60;2.67;;;;;;;;;;5116275;28;20442;-70
2022/06/14 09:06:02;;;;;;;6.40;2.33;;;;;;;;;;5115630;28;20455;-70
2022/06/14 09:08:51;;;;;;;5.10;2.10;;;;;;;;;;5116157;28;20435;-71
2022/06/14 09:11:37;;;;;;;7.30;2.20;;;;;;;;;;5115206;28;20478;-71
2022/06/14 09:14:19;;;;;;;5.20;2.07;;;;;;;;;;5114340;28;20485;-69
2022/06/14 09:17:05;;;;;;;6.47;2.00;;;;;;;;;;5112777;28;20537;-71
2022/06/14 09:19:40;;;;;;;5.73;2.33;;;;;;;;;;5115452;28;20502;-70
2022/06/14 09:22:10;;;;;;;3.93;2.73;;;;;;;;;;5116053;28;20853;-70
2022/06/14 09:24:58;;;;;;;5.53;2.23;;;;;;;;;;5115226;28;20505;-70
2022/06/14 09:27:36;;;;;;;6.17;2.40;;;;;;;;;;5114975;28;20431;-70
2022/06/14 09:30:20;;;;;;;6.17;1.77;;;;;;;;;;5114755;28;20435;-70
2022/06/14 09:33:12;;;;;;;7.00;2.20;;;;;;;;;;5113085;28;20911;-70
2022/06/14 09:35:49;;;;;;;6.10;2.57;;;;;;;;;;5115315;28;20455;-70
2022/06/14 09:38:29;;;;;;;3.57;2.13;;;;;;;;;;5115795;28;20430;-70
2022/06/14 09:41:12;;;;;;;4.23;2.00;;;;;;;;;;5114929;28;20601;-70
2022/06/14 09:43:51;;;;;;;6.53;2.53;;;;;;;;;;5114650;28;20433;-70
2022/06/14 09:46:28;;;;;;;5.80;2.00;;;;;;;;;;5114895;28;20475;-70
2022/06/14 09:49:13;;;;;;;3.27;2.93;;;;;;;;;;5115206;28;20447;-71
2022/06/14 09:51:58;;;;;;;5.70;2.40;;;;;;;;;;5073935;28;20566;-69
2022/06/14 09:54:45;;;;;;;5.40;2.60;;;;;;;;;;5115048;28;20441;-69
2022/06/14 09:57:25;;;;;;;8.30;2.17;;;;;;;;;;5115161;28;20483;-70
2022/06/14 10:00:07;;;;;;;5.33;2.70;;;;;;;;;;5114433;28;20526;-69
2022/06/14 10:02:39;;;;;;;4.17;2.70;;;;;;;;;;5112288;28;20482;-70
2022/06/14 10:05:16;;;;;;;8.80;2.63;;;;;;;;;;5114841;28;20520;-69
2022/06/14 10:07:53;;;;;;;14.23;3.27;;;;;;;;;;5114230;28;20512;-69
2022/06/14 10:10:32;;;;;;;4.60;2.40;;;;;;;;;;5114793;28;20511;-69
2022/06/14 10:13:20;;;;;;;4.40;2.20;;;;;;;;;;5114312;28;20467;-70
2022/06/14 10:15:51;;;;;;;5.03;2.73;;;;;;;;;;5107507;28;20486;-69
2022/06/14 10:18:28;;;;;;;4.87;2.50;;;;;;;;;;5114311;28;20482;-69
2022/06/14 10:20:57;;;;;;;3.20;2.07;;;;;;;;;;5114590;28;20424;-69
2022/06/14 10:23:33;;;;;;;4.90;2.60;;;;;;;;;;5114976;28;20474;-70
2022/06/14 10:29:01;;;;;;;5.10;3.20;;;;;;;;;;5114175;28;20468;-70
2022/06/14 10:31:35;;;;;;;5.10;2.37;;;;;;;;;;5114220;28;20466;-70
2022/06/14 10:34:06;;;;;;;5.37;2.60;;;;;;;;;;5113884;28;20515;-70
2022/06/14 10:36:38;;;;;;;5.30;2.50;;;;;;;;;;5114024;28;20433;-69
2022/06/14 10:39:19;;;;;;;6.27;4.00;;;;;;;;;;5113843;28;20514;-70
2022/06/14 10:41:52;;;;;;;5.10;2.47;;;;;;;;;;5113687;28;20467;-70
2022/06/14 10:44:25;;;;;;;2.73;2.30;;;;;;;;;;5113975;28;20432;-70
2022/06/14 10:46:58;;;;;;;5.83;2.27;;;;;;;;;;5113939;28;20465;-70
2022/06/14 10:49:39;;;;;;;4.70;2.40;;;;;;;;;;5113979;28;20463;-70
2022/06/14 10:52:23;;;;;;;4.73;2.47;;;;;;;;;;5113680;28;20551;-71
2022/06/14 10:54:56;;;;;;;5.00;2.23;;;;;;;;;;5113620;28;20518;-71
2022/06/14 10:57:37;;;;;;;12.67;3.13;;;;;;;;;;5113912;28;20519;-71
2022/06/14 11:00:11;;;;;;;7.50;2.60;;;;;;;;;;5113959;28;20430;-70
2022/06/14 11:02:49;;;;;;;6.23;2.60;;;;;;;;;;5113800;28;20904;-70
2022/06/14 11:05:21;;;;;;;4.23;2.67;;;;;;;;;;5113865;28;20431;-70
2022/06/14 11:08:09;;;;;;;5.70;2.37;;;;;;;;;;5113914;28;20517;-70
2022/06/14 11:10:54;;;;;;;5.00;2.73;;;;;;;;;;5107067;28;20482;-69
2022/06/14 11:13:26;;;;;;;5.03;2.43;;;;;;;;;;5113867;28;20470;-69
2022/06/14 11:15:57;;;;;;;8.10;3.23;;;;;;;;;;5113690;28;20873;-69
2022/06/14 11:18:43;;;;;;;7.90;3.10;;;;;;;;;;5113873;28;20451;-69
2022/06/14 11:21:19;;;;;;;5.10;2.27;;;;;;;;;;5113890;28;20515;-70
2022/06/14 11:23:50;;;;;;;4.70;2.73;;;;;;;;;;5113356;28;20491;-69
2022/06/14 11:26:20;;;;;;;5.43;2.60;;;;;;;;;;5113273;28;20470;-69
2022/06/14 11:28:51;;;;;;;4.40;2.70;;;;;;;;;;5113238;28;20439;-69
2022/06/14 11:31:23;;;;;;;10.17;2.77;;;;;;;;;;5113928;28;20993;-69
2022/06/14 11:33:57;;;;;;;5.00;2.30;;;;;;;;;;5113679;28;20474;-69
2022/06/14 11:36:31;;;;;;;8.10;3.63;;;;;;;;;;5113952;28;20456;-70
2022/06/14 11:39:04;;;;;;;6.37;2.57;;;;;;;;;;5116776;28;20522;-69
2022/06/14 11:41:36;;;;;;;7.87;2.80;;;;;;;;;;5117301;28;20451;-70
2022/06/14 11:44:10;;;;;;;6.10;2.70;;;;;;;;;;5116998;28;20442;-69
2022/06/14 11:46:41;;;;;;;8.63;2.13;;;;;;;;;;5117322;28;20781;-69
2022/06/14 11:49:10;;;;;;;4.43;2.20;;;;;;;;;;5117856;28;20530;-69
2022/06/14 11:51:44;;;;;;;7.87;2.60;;;;;;;;;;5117069;28;20512;-69
2022/06/14 11:54:24;;;;;;;3.77;2.63;;;;;;;;;;5116784;28;20431;-71
2022/06/14 11:57:02;;;;;;;5.80;2.40;;;;;;;;;;5116975;28;20502;-70
2022/06/14 11:59:47;;;;;;;5.73;2.57;;;;;;;;;;5117163;28;20507;-69
2022/06/14 12:02:24;;;;;;;4.07;2.13;;;;;;;;;;5116616;28;20440;-70
2022/06/14 12:04:58;;;;;;;6.37;2.40;;;;;;;;;;5117136;28;20452;-70
2022/06/14 12:07:29;;;;;;;3.70;2.70;;;;;;;;;;5116975;28;20862;-70
2022/06/14 12:10:17;;;;;;;5.77;2.40;;;;;;;;;;5117419;28;20430;-70
2022/06/14 12:12:50;;;;;;;6.50;3.00;;;;;;;;;;5116338;28;20493;-70
2022/06/14 12:15:22;;;;;;;8.50;3.20;;;;;;;;;;5116504;28;20847;-70
2022/06/14 12:17:51;;;;;;;9.43;2.90;;;;;;;;;;5116521;28;20856;-70
2022/06/14 12:20:20;;;;;;;7.37;2.53;;;;;;;;;;5116266;28;20931;-71
2022/06/14 12:22:53;;;;;;;5.83;2.63;;;;;;;;;;5116387;28;20538;-70
2022/06/14 12:28:13;;;;;;;5.37;2.30;;;;;;;;;;5116510;28;20469;-70
2022/06/14 12:30:42;;;;;;;8.30;3.10;;;;;;;;;;5116119;28;21004;-70
2022/06/14 12:33:14;;;;;;;7.00;2.80;;;;;;;;;;5115816;28;20476;-70
2022/06/14 12:35:45;;;;;;;5.87;2.50;;;;;;;;;;5116519;28;20434;-70
2022/06/14 12:38:15;;;;;;;5.17;2.47;;;;;;;;;;5116469;28;20537;-70
2022/06/14 12:40:45;;;;;;;5.40;2.13;;;;;;;;;;5116237;28;20841;-70
2022/06/14 12:43:15;;;;;;;5.63;2.90;;;;;;;;;;5116046;28;20968;-70
2022/06/14 12:45:46;;;;;;;6.47;2.80;;;;;;;;;;5116003;28;20440;-70
2022/06/14 12:48:21;;;;;;;4.00;2.03;;;;;;;;;;5116098;28;20486;-71
2022/06/14 12:50:50;;;;;;;4.50;2.33;;;;;;;;;;5116117;28;20498;-70
2022/06/14 12:53:38;;;;;;;8.10;2.53;;;;;;;;;;5115348;28;20480;-70
2022/06/14 12:56:11;;;;;;;4.13;2.27;;;;;;;;;;5116215;28;20438;-69
2022/06/14 12:58:41;;;;;;;7.53;2.67;;;;;;;;;;5115893;28;20433;-77
2022/06/14 13:01:15;;;;;;;3.70;2.57;;;;;;;;;;5116096;28;20435;-78
2022/06/14 13:03:50;;;;;;;4.70;2.20;;;;;;;;;;5115633;28;20784;-78
2022/06/14 13:06:28;;;;;;;7.43;2.20;;;;;;;;;;5115408;28;20425;-78
2022/06/14 13:08:58;;;;;;;4.00;2.40;;;;;;;;;;5115725;28;20817;-78
2022/06/14 13:11:30;;;;;;;5.43;2.70;;;;;;;;;;5115448;28;20526;-78
2022/06/14 13:14:08;;;;;;;7.20;2.50;;;;;;;;;;5115568;27;20876;-78
2022/06/14 13:16:46;;;;;;;5.83;2.60;;;;;;;;;;5135900;27;20481;-77
2022/06/14 13:19:19;;;;;;;17.70;9.50;;;;;;;;;;5135745;27;20440;-78
2022/06/14 13:21:57;;;;;;;3.60;1.90;;;;;;;;;;5135723;27;20849;-78
2022/06/14 13:24:28;;;;;;;6.30;2.57;;;;;;;;;;5135758;27;20480;-79
2022/06/14 13:27:02;;;;;;;5.77;3.47;;;;;;;;;;5135479;27;20430;-79
2022/06/14 13:29:37;;;;;;;3.90;2.40;;;;;;;;;;5135429;27;20470;-79
2022/06/14 13:32:14;;;;;;;2.80;2.00;;;;;;;;;;5135573;27;20432;-78
2022/06/14 13:34:49;;;;;;;8.00;2.50;;;;;;;;;;5135554;27;20440;-74
2022/06/14 13:37:20;;;;;;;7.70;2.40;;;;;;;;;;5135276;27;20900;-73
2022/06/14 13:39:50;;;;;;;4.37;2.17;;;;;;;;;;5135160;27;20900;-73
2022/06/14 13:42:22;;;;;;;4.60;2.90;;;;;;;;;;5134953;27;20927;-74
2022/06/14 13:44:53;;;;;;;4.67;2.60;;;;;;;;;;5135369;27;20647;-75
2022/06/14 13:47:29;;;;;;;6.47;2.10;;;;;;;;;;5135475;27;20497;-76
2022/06/14 13:50:01;;;;;;;7.43;2.70;;;;;;;;;;5135051;27;20519;-74
2022/06/14 13:52:32;;;;;;;9.37;2.70;;;;;;;;;;5134985;27;20517;-74
2022/06/14 13:55:05;;;;;;;5.40;2.50;;;;;;;;;;5134820;27;20472;-75
2022/06/14 13:57:34;;;;;;;7.50;2.97;;;;;;;;;;5135253;27;20451;-74
2022/06/14 14:00:03;;;;;;;5.83;2.70;;;;;;;;;;5134478;27;20434;-74
2022/06/14 14:02:35;;;;;;;7.20;2.53;;;;;;;;;;5134900;27;20442;-75
2022/06/14 14:05:06;;;;;;;3.67;2.10;;;;;;;;;;5134993;27;20843;-74
2022/06/14 14:07:36;;;;;;;5.90;2.93;;;;;;;;;;5135122;27;20438;-74
2022/06/14 14:10:21;;;;;;;6.90;2.60;;;;;;;;;;5134418;27;20933;-73
2022/06/14 14:12:52;;;;;;;5.37;2.30;;;;;;;;;;5118305;27;20522;-71
2022/06/14 14:15:25;;;;;;;4.53;2.30;;;;;;;;;;5134740;27;20463;-71
2022/06/14 14:17:57;;;;;;;3.43;1.87;;;;;;;;;;5134732;27;20459;-70
2022/06/14 14:20:35;;;;;;;4.53;2.40;;;;;;;;;;5134475;27;20519;-70
2022/06/14 14:23:06;;;;;;;11.20;2.53;;;;;;;;;;5134734;27;20432;-71
2022/06/14 14:25:35;;;;;;;4.40;2.47;;;;;;;;;;5134261;27;20515;-72
2022/06/14 14:28:05;;;;;;;9.50;2.63;;;;;;;;;;5134002;27;20450;-69
2022/06/14 14:30:45;;;;;;;5.83;2.50;;;;;;;;;;5134534;27;20483;-70
2022/06/14 14:33:15;;;;;;;9.83;2.73;;;;;;;;;;5134632;27;20867;-69
2022/06/14 14:35:44;;;;;;;7.43;2.47;;;;;;;;;;5134699;27;20477;-69
2022/06/14 14:38:13;;;;;;;5.17;2.60;;;;;;;;;;5133821;27;20446;-70
2022/06/14 14:41:32;;;;;;;7.93;3.03;;;;;;;;;;5134373;27;20888;-69
2022/06/14 14:43:29;;;;;;;5.13;2.40;;;;;;;;;;5134043;27;20437;-69
2022/06/14 14:46:04;;;;;;;9.77;3.53;;;;;;;;;;5134063;27;20474;-70
2022/06/14 14:48:37;;;;;;;6.67;2.23;;;;;;;;;;5134849;27;20441;-70
2022/06/14 14:51:08;;;;;;;5.83;4.00;;;;;;;;;;5133942;27;20471;-72
2022/06/14 14:53:38;;;;;;;7.27;3.17;;;;;;;;;;5134312;28;20485;-71
2022/06/14 14:56:09;;;;;;;3.47;2.20;;;;;;;;;;5133859;28;20924;-71
2022/06/14 14:58:39;;;;;;;4.93;2.40;;;;;;;;;;5134481;28;20428;-71
2022/06/14 15:07:05;;;;;;;4.90;2.23;;;;;;;;;;5134158;28;20449;-71
2022/06/14 15:09:36;;;;;;;4.37;2.73;;;;;;;;;;5134432;28;20780;-72
2022/06/14 15:12:04;;;;;;;7.40;3.00;;;;;;;;;;5134030;27;20955;-69
2022/06/14 15:14:31;;;;;;;5.67;2.57;;;;;;;;;;5137513;27;20560;-71
2022/06/14 15:19:56;;;;;;;5.33;3.27;;;;;;;;;;5137946;27;20398;-70
2022/06/14 15:22:25;;;;;;;3.47;2.40;;;;;;;;;;5138419;27;20441;-69
2022/06/14 15:24:54;;;;;;;6.20;3.23;;;;;;;;;;5137705;27;20448;-74
2022/06/14 15:27:33;;;;;;;8.03;3.23;;;;;;;;;;5137581;27;20450;-74
2022/06/14 15:30:01;;;;;;;6.70;2.10;;;;;;;;;;5137777;27;20822;-73
2022/06/14 15:32:29;;;;;;;4.67;2.80;;;;;;;;;;5138171;27;20472;-74
2022/06/14 15:34:59;;;;;;;5.20;4.03;;;;;;;;;;5137292;27;20451;-73
2022/06/14 15:37:28;;;;;;;6.13;3.70;;;;;;;;;;5137967;27;20473;-75